Portada
METAR-TAF:

METAR-TAF

Aeropuertos :

Aeropuerto Internacional Wattay

Vientián, Laos

latitud: 17-57N, longitud: 102-34E, altitud: 171 m

Observación

El informe se hizo hace 23 minutos, a las 13:30 UTC
Viento calma
Temperatura 22°C
Humedad 78%
Presión 1015 hPa
Visibilidad: 4000 m
Escasas nubes a una altura de 5000 ft
neblina

METAR: VLVT 181330Z 00000KT 4000 BR FEW050 22/18 Q1015 NOSIG

Hora: 20:53 (13:53 UTC)

Pronóstico

El informe se hizo hace 2 horas y 53 minutos, a las 11:00 UTC
Pronóstico válido del 18 a las 12 UTC al 19 a las 12 UTC
Viento 4 kt del este
Visibilidad: 8000 m
Escasas nubes a una altura de 2000 ft
Escasas nubes a una altura de 20000 ft
Temporalmente
del 18 a las 14 UTC al 18 a las 20 UTC
Visibilidad: 4000 m
Escasas nubes a una altura de 5000 ft
Escasas nubes a una altura de 20000 ft
neblina

TAF: VLVT 181100Z 1812/1912 09004KT 8000 FEW020 FEW200 TEMPO 1814/1820 4000 BR FEW050 FEW200

Observaciones y pronósticos meteorológicos de más de 4000 aeropuertos (mensajes METAR y TAF).

Los puntos amarillos y rojos representan las estaciones disponibles.

Ponga el ratón en el punto deseado para ver el nombre de la estación.

Haga clic para ver las observaciones y los pronósticos meteorológicos.

Para cambiar el mapa : haga clic en los botones verdes con una cruz de color negro para hacer un zoom, en el botón verde con un guión para alejar o en las flechas verdes para mapas adyacentes.


METAR-TAF: